Terminal Aerodrome Forecast
Issued by NWS Jackson, MS

Home | Current Version | Previous Version | Text Only | Print | Product List | Glossary On
Versions: 1 2 3 4 5 6 7 8 9 10 11 12 13
271
FTUS44 KJAN 071135
TAFGLH
TAF
KGLH 071135Z 0712/0812 03007KT 6SM BR FEW008 BKN025 OVC050
     FM071400 04007KT P6SM OVC025
     FM080200 01006KT P6SM OVC050=

USA.gov is the U.S. government's official web portal to all federal, state and local government web resources and services.